Terminal Aerodrome Forecast
Issued by NWS Sterling, VA

Current Version | Previous Version | Graphics & Text | Print | Product List | Glossary On
Versions: 1 2 3 4 5 6 7 8 9 10 11 12 13 14 15 16 17 18 19 20 21
000
FTUS41 KLWX 301700
TAFIAD
TAF
KIAD 301733Z 3018/3124 32019G30KT P6SM FEW025 BKN045 BKN070
     FM310900 31014KT P6SM FEW250
     FM311800 31009KT P6SM FEW250
     FM312100 31005KT P6SM FEW250=

USA.gov is the U.S. government's official web portal to all federal, state and local government web resources and services.